createdAt,value
2019-04-16T00:01:03.593Z,11.03
2019-04-16T00:06:31.979Z,11.27
2019-04-16T00:12:00.107Z,12.00
2019-04-16T00:17:06.016Z,10.57
2019-04-16T00:22:23.233Z,11.20
2019-04-16T00:27:29.492Z,10.27
2019-04-16T00:32:38.071Z,10.60
2019-04-16T00:38:01.682Z,11.00
2019-04-16T00:43:07.354Z,11.37
2019-04-16T00:48:13.075Z,10.27
2019-04-16T00:53:18.952Z,10.50
2019-04-16T00:58:25.772Z,10.63
2019-04-16T01:03:31.584Z,9.70
2019-04-16T01:08:53.561Z,10.70
2019-04-16T01:13:47.927Z,10.60
2019-04-16T01:18:53.818Z,11.23
2019-04-16T01:23:59.974Z,11.10
2019-04-16T01:29:11.979Z,10.57
2019-04-16T01:34:27.056Z,12.63
2019-04-16T01:39:33.817Z,11.63
2019-04-16T01:44:39.937Z,10.87
2019-04-16T01:49:45.811Z,11.30
2019-04-16T01:54:54.958Z,11.03
2019-04-16T02:00:00.022Z,10.13
2019-04-16T02:05:11.732Z,11.13
2019-04-16T02:10:45.899Z,11.63
2019-04-16T02:15:53.339Z,10.77
2019-04-16T02:21:10.508Z,12.67
2019-04-16T02:26:15.218Z,12.60
2019-04-16T02:31:21.593Z,12.47
2019-04-16T02:36:34.933Z,11.30
2019-04-16T02:42:21.396Z,10.67
2019-04-16T02:47:27.443Z,11.47
2019-04-16T02:59:31.676Z,12.47
2019-04-16T03:04:51.846Z,11.43
2019-04-16T03:10:01.403Z,12.80
2019-04-16T03:15:09.015Z,12.57
2019-04-16T03:20:16.298Z,12.13
2019-04-16T03:25:22.192Z,12.30
2019-04-16T03:31:09.399Z,12.63
2019-04-16T03:37:16.425Z,12.70
2019-04-16T03:42:29.165Z,12.07
2019-04-16T03:47:35.523Z,12.30
2019-04-16T03:52:45.792Z,12.60
2019-04-16T03:57:50.151Z,12.50
2019-04-16T04:02:56.040Z,12.93
2019-04-16T04:08:02.231Z,12.57
2019-04-16T04:13:08.395Z,12.57
2019-04-16T04:18:14.269Z,14.67
2019-04-16T04:23:20.892Z,13.07
2019-04-16T04:28:29.035Z,13.30
2019-04-16T04:33:54.197Z,12.87
2019-04-16T04:39:09.905Z,11.97
2019-04-16T04:44:14.850Z,12.17
2019-04-16T04:49:30.052Z,13.10
2019-04-16T04:54:43.012Z,12.10
2019-04-16T04:59:50.225Z,12.70
2019-04-16T05:05:15.530Z,12.00
2019-04-16T05:43:05.547Z,12.53
2019-04-16T05:54:54.028Z,14.90
2019-04-16T06:01:02.203Z,12.63
2019-04-16T06:06:23.272Z,14.00
2019-04-16T06:11:49.241Z,14.10
2019-04-16T06:17:32.870Z,13.90
2019-04-16T06:23:07.438Z,13.80
2019-04-16T06:28:23.783Z,14.07
2019-04-16T06:33:57.687Z,12.17
2019-04-16T06:39:20.994Z,15.00
2019-04-16T06:44:30.089Z,13.90
2019-04-16T06:50:04.650Z,14.00
2019-04-16T06:55:42.911Z,13.37
2019-04-16T07:01:06.851Z,14.63
2019-04-16T07:06:29.528Z,15.00
2019-04-16T07:12:22.806Z,13.90
2019-04-16T07:17:32.871Z,12.33
2019-04-16T07:22:38.025Z,10.37
2019-04-16T07:28:18.205Z,13.87
2019-04-16T07:33:41.905Z,13.00
2019-04-16T07:38:59.533Z,14.00
2019-04-16T07:44:14.990Z,14.47
2019-04-16T07:49:37.987Z,13.27
2019-04-16T07:55:17.959Z,14.03
2019-04-16T08:00:23.915Z,15.43
2019-04-16T08:05:31.590Z,15.27
2019-04-16T08:10:37.392Z,13.77
2019-04-16T08:15:42.982Z,15.40
2019-04-16T08:21:00.323Z,13.20
2019-04-16T08:26:03.475Z,12.30
2019-04-16T08:31:10.499Z,13.78
2019-04-16T08:36:12.725Z,14.20
2019-04-16T08:41:21.123Z,14.13
2019-04-16T08:46:28.328Z,14.00
2019-04-16T08:51:39.106Z,13.03
2019-04-16T08:56:45.746Z,13.50
2019-04-16T09:01:54.537Z,13.68
2019-04-16T09:07:11.146Z,13.72
2019-04-16T09:12:09.800Z,14.93
2019-04-16T09:17:19.653Z,14.55
2019-04-16T09:22:26.794Z,14.03
2019-04-16T09:27:37.641Z,13.45
2019-04-16T09:32:46.560Z,15.35
2019-04-16T09:38:14.183Z,16.62
2019-04-16T09:43:23.017Z,14.98
2019-04-16T09:48:34.499Z,15.90
2019-04-16T09:53:40.101Z,14.53
2019-04-16T09:58:45.279Z,15.45
2019-04-16T10:03:54.245Z,15.32
2019-04-16T10:09:02.393Z,15.08
2019-04-16T10:14:08.414Z,16.30
2019-04-16T10:19:14.726Z,13.93
2019-04-16T10:24:43.562Z,15.32
2019-04-16T10:29:49.571Z,16.30
2019-04-16T10:34:55.956Z,15.28
2019-04-16T10:40:30.040Z,15.68
2019-04-16T10:46:13.555Z,13.88
2019-04-16T10:51:38.358Z,10.23
2019-04-16T10:57:10.482Z,17.77
2019-04-16T11:02:38.466Z,13.90
2019-04-16T11:07:45.443Z,14.75
2019-04-16T11:12:51.338Z,16.50
2019-04-16T11:17:57.446Z,14.75
2019-04-16T11:23:06.850Z,15.28
2019-04-16T11:28:14.160Z,14.68
2019-04-16T11:33:19.863Z,12.30
2019-04-16T11:38:25.741Z,11.75
2019-04-16T11:43:31.550Z,10.95
2019-04-16T11:48:38.173Z,11.35
2019-04-16T11:53:44.363Z,9.75
2019-04-16T11:58:50.154Z,9.73
2019-04-16T12:04:04.162Z,8.43
2019-04-16T12:09:27.683Z,8.93
2019-04-16T12:14:53.597Z,9.20
2019-04-16T12:20:36.949Z,7.85
2019-04-16T12:26:00.598Z,6.47
2019-04-16T12:31:12.097Z,7.53
2019-04-16T12:36:34.960Z,6.50
2019-04-16T12:42:00.144Z,7.20
2019-04-16T12:47:22.451Z,10.65
2019-04-16T12:52:51.926Z,9.63
2019-04-16T12:58:09.703Z,7.95
2019-04-16T13:03:46.342Z,7.42
2019-04-16T13:09:09.874Z,9.38
2019-04-16T13:14:33.223Z,17.12
2019-04-16T13:20:03.820Z,16.55
2019-04-16T13:25:40.992Z,14.63
2019-04-16T13:30:48.632Z,13.55
2019-04-16T13:35:54.661Z,12.63
2019-04-16T13:41:02.189Z,6.35
2019-04-16T13:46:08.402Z,8.13
2019-04-16T13:51:18.987Z,8.13
2019-04-16T13:56:40.386Z,5.08
2019-04-16T14:01:51.287Z,5.15
2019-04-16T14:06:57.882Z,4.47
2019-04-16T14:12:05.337Z,3.17
2019-04-16T14:17:17.682Z,3.60
2019-04-16T14:22:22.673Z,3.55
2019-04-16T14:27:28.695Z,3.92
2019-04-16T14:32:34.723Z,3.12
2019-04-16T14:37:47.474Z,3.70
2019-04-16T14:42:57.579Z,3.37
2019-04-16T14:48:07.606Z,3.42
2019-04-16T14:53:13.575Z,5.03
2019-04-16T14:58:39.868Z,3.40
2019-04-16T15:04:11.501Z,3.47
2019-04-16T15:09:41.754Z,4.00
2019-04-16T15:14:52.998Z,4.65
2019-04-16T15:20:17.800Z,3.75
2019-04-16T15:25:30.645Z,4.70
2019-04-16T15:31:02.827Z,5.72
2019-04-16T15:36:12.460Z,6.08
2019-04-16T15:41:34.383Z,5.78
2019-04-16T15:46:59.269Z,5.83
2019-04-16T15:52:23.446Z,5.45
2019-04-16T15:57:50.297Z,5.42
2019-04-16T16:03:14.030Z,5.95
2019-04-16T16:09:24.540Z,7.55
2019-04-16T16:14:34.685Z,8.05
2019-04-16T16:19:43.894Z,8.38
2019-04-16T16:24:58.253Z,8.95
2019-04-16T16:30:37.282Z,9.25
2019-04-16T16:35:58.751Z,8.63
2019-04-16T16:40:58.393Z,8.80
2019-04-16T16:46:22.006Z,9.08
2019-04-16T16:51:28.158Z,7.97
2019-04-16T16:56:44.899Z,7.70
2019-04-16T17:02:18.694Z,8.03
2019-04-16T17:07:24.564Z,7.90
2019-04-16T17:12:31.592Z,7.35
2019-04-16T17:17:38.105Z,6.10
2019-04-16T17:22:45.605Z,6.12
2019-04-16T17:27:52.063Z,5.75
2019-04-16T17:32:58.319Z,5.90
2019-04-16T17:38:06.583Z,5.72
2019-04-16T17:43:17.835Z,5.55
2019-04-16T17:48:48.185Z,5.58
2019-04-16T17:54:13.942Z,5.53
2019-04-16T17:59:34.796Z,5.92
2019-04-16T18:05:12.778Z,5.22
2019-04-16T18:21:29.616Z,5.80
2019-04-16T18:27:15.784Z,5.50
2019-04-16T18:47:18.869Z,5.47
2019-04-16T18:53:29.404Z,6.25
2019-04-16T18:59:55.154Z,5.97
2019-04-16T19:12:17.364Z,3.87
2019-04-16T19:17:25.542Z,4.22
2019-04-16T19:22:38.593Z,4.25
2019-04-16T19:27:48.759Z,1.25
2019-04-16T19:33:01.018Z,1.77
2019-04-16T19:38:07.703Z,2.98
2019-04-16T19:43:14.159Z,2.15
2019-04-16T19:48:34.723Z,3.95
2019-04-16T19:53:34.857Z,1.57
2019-04-16T19:58:44.285Z,3.25
2019-04-16T20:03:52.056Z,2.83
2019-04-16T20:08:58.393Z,1.87
2019-04-16T20:14:06.103Z,4.10
2019-04-16T20:19:14.364Z,4.72
2019-04-16T20:24:21.645Z,4.40
2019-04-16T20:29:30.463Z,3.90
2019-04-16T20:34:38.087Z,3.47
2019-04-16T20:39:46.070Z,3.72
2019-04-16T20:44:53.605Z,4.20
2019-04-16T20:50:03.940Z,3.45
2019-04-16T20:55:15.755Z,4.10
2019-04-16T21:00:26.743Z,3.77
2019-04-16T21:05:36.579Z,3.70
2019-04-16T21:10:45.560Z,3.72
2019-04-16T21:15:57.362Z,3.75
2019-04-16T21:21:03.147Z,4.37
2019-04-16T21:26:12.118Z,3.95
2019-04-16T21:31:24.563Z,3.77
2019-04-16T21:36:51.547Z,3.77
2019-04-16T21:42:02.423Z,3.72
2019-04-16T21:47:07.633Z,4.03
2019-04-16T21:52:17.108Z,3.62
2019-04-16T21:57:25.868Z,3.90
2019-04-16T22:02:42.778Z,3.40
2019-04-16T22:07:49.706Z,3.40
2019-04-16T22:12:58.213Z,3.77
2019-04-16T22:18:09.103Z,3.95
2019-04-16T22:23:19.021Z,3.98
2019-04-16T22:28:25.015Z,4.00
2019-04-16T22:33:32.042Z,4.50
2019-04-16T22:38:39.995Z,4.05
2019-04-16T22:44:04.515Z,3.83
2019-04-16T22:49:10.715Z,4.10
2019-04-16T22:54:20.892Z,3.42
2019-04-16T22:59:39.075Z,4.40
2019-04-16T23:04:45.491Z,3.72
2019-04-16T23:09:52.319Z,3.95
2019-04-16T23:14:59.586Z,3.75
2019-04-16T23:20:06.024Z,3.90
2019-04-16T23:25:11.910Z,3.55
2019-04-16T23:30:19.253Z,3.37
2019-04-16T23:35:25.285Z,3.33
2019-04-16T23:40:33.291Z,3.50
2019-04-16T23:45:58.136Z,4.10
2019-04-16T23:51:09.063Z,3.17
2019-04-16T23:56:41.137Z,3.55
